Hovedside
METAR-TAF:

METAR-TAF

Lufthavner :

Kemi, Finland

Kemi-Torneå lufthavn

breddegrad: 65-47N, lengdegrad: 024-35E, høyde over havet: 15 m

Gjeldene værobservasjon

Denne rapporten ble laget for 10 minutter siden, klokken 07:20 UTC
Vind 5 kt fra Øst-nordøst, skiftende mellom Nordøst og Øst-sørøst
Temperatur 2°C
Luftfuktighet 80%
Trykk 999 hPa
Sikt 10 km eller mer
Overskyet i en høyde av 1300 ft

METAR: EFKE 210720Z AUTO 06005KT 040V110 9999 OVC013 02/M01 Q0999

Tid: 10:30 (07:30 UTC)

Varsel

Denne rapporten ble laget for 1 time og 59 minutter siden, klokken 05:31 UTC
Varsel gyldig fra 21. klokken 06 UTC til 21. klokken 15 UTC
Vind 5 kt fra Øst-nordøst
Sikt 10 km eller mer
Overskyet i en høyde av 800 ft
Midlertidig
fra 21. klokken 06 UTC til 21. klokken 09 UTC
Brutte skyer i en høyde av 1100 ft
Blir
fra 21. klokken 09 UTC til 21. klokken 11 UTC
Brutte skyer i en høyde av 2000 ft

TAF: EFKE 210531Z 2106/2115 06005KT 9999 OVC008 TEMPO 2106/2109 BKN011 BECMG 2109/2111 BKN020

Værobservasjoner og værvarsel for over 4000 flyplasser (METAR- og TAF-rapporter).

Tilgjengelige stasjoner er representert av de røde og gule prikkene på kartet.

Hold musepekeren over prikken for å se navnet på stasjonen.

Klikk så for å se værobservasjoner og -varsler.

For å forandre kartet kan du klikke på den grønne knappen med svart kryss for å zoome inn, på den grønne knappen med strek for å zoome ut, eller på de grønne pilene for å se tilstøtende kart.


METAR-TAF: